Kelly, Kansas
Current Conditions -  °F | °C
As of 6:53 PM on Friday 19 Dec 2014 (Local Time) from KFNB Reporting Station
Overcast Overcast  
Wind Chill: 26°   Ceiling: 1000
Heat Index: 31°   Visibility: 10mi
Dew Point: 27°   Wind: 5mph
Humidity: 85%   Direction: 200°SSW
Pressure: 30.19"   Gusts: NA
Location:  39.8497°N, 96.0411°W
Report Text: KFNB 200053Z AUTO 20004KT 10SM OVC010 M01/M03 A3019 RMK AO2 SLP234 T10061028
Loading
Personal Weather Stations






























Interactive Weather Map New forecast layout! Learn more

10-Day Weather Forecast

Advertisements
Track Severe Weather on mobile